sensor_id;sensor_type;location;lat;lon;timestamp;P1;durP1;ratioP1;P2;durP2;ratioP2
13807;SDS011;40769;51.512;5.494;2023-10-19T00:01:14;8.32;;;7.63;;
13807;SDS011;40769;51.512;5.494;2023-10-19T00:03:43;8.48;;;7.75;;
13807;SDS011;40769;51.512;5.494;2023-10-19T00:06:14;8.77;;;7.97;;
13807;SDS011;40769;51.512;5.494;2023-10-19T00:08:43;8.02;;;7.43;;
13807;SDS011;40769;51.512;5.494;2023-10-19T00:11:09;7.68;;;7.07;;
13807;SDS011;40769;51.512;5.494;2023-10-19T00:13:37;8.73;;;7.97;;
13807;SDS011;40769;51.512;5.494;2023-10-19T00:16:04;9.07;;;8.27;;
13807;SDS011;40769;51.512;5.494;2023-10-19T00:18:42;6.93;;;6.43;;
13807;SDS011;40769;51.512;5.494;2023-10-19T00:21:09;7.88;;;7.18;;
13807;SDS011;40769;51.512;5.494;2023-10-19T00:23:45;7.00;;;6.40;;
13807;SDS011;40769;51.512;5.494;2023-10-19T00:26:13;7.90;;;7.20;;
13807;SDS011;40769;51.512;5.494;2023-10-19T00:28:45;7.20;;;6.63;;
13807;SDS011;40769;51.512;5.494;2023-10-19T00:31:18;6.85;;;6.35;;
13807;SDS011;40769;51.512;5.494;2023-10-19T00:33:47;7.38;;;6.78;;
13807;SDS011;40769;51.512;5.494;2023-10-19T00:36:16;8.48;;;7.78;;
13807;SDS011;40769;51.512;5.494;2023-10-19T00:38:45;8.27;;;7.57;;
13807;SDS011;40769;51.512;5.494;2023-10-19T00:41:15;5.72;;;5.22;;
13807;SDS011;40769;51.512;5.494;2023-10-19T00:43:54;6.60;;;6.10;;
13807;SDS011;40769;51.512;5.494;2023-10-19T00:46:42;8.50;;;7.70;;
13807;SDS011;40769;51.512;5.494;2023-10-19T00:49:08;6.47;;;5.88;;
13807;SDS011;40769;51.512;5.494;2023-10-19T00:51:41;6.22;;;5.72;;
13807;SDS011;40769;51.512;5.494;2023-10-19T00:54:20;7.80;;;7.10;;
13807;SDS011;40769;51.512;5.494;2023-10-19T00:56:56;5.43;;;5.03;;
13807;SDS011;40769;51.512;5.494;2023-10-19T00:59:24;7.20;;;6.60;;
13807;SDS011;40769;51.512;5.494;2023-10-19T01:01:55;7.20;;;6.55;;
13807;SDS011;40769;51.512;5.494;2023-10-19T01:04:45;6.18;;;5.78;;
13807;SDS011;40769;51.512;5.494;2023-10-19T01:07:20;5.80;;;5.40;;
13807;SDS011;40769;51.512;5.494;2023-10-19T01:10:03;5.15;;;4.72;;
13807;SDS011;40769;51.512;5.494;2023-10-19T01:12:31;6.05;;;5.55;;
13807;SDS011;40769;51.512;5.494;2023-10-19T01:15:16;5.90;;;5.40;;
13807;SDS011;40769;51.512;5.494;2023-10-19T01:17:44;5.45;;;5.05;;
13807;SDS011;40769;51.512;5.494;2023-10-19T01:23:09;5.43;;;5.03;;
13807;SDS011;40769;51.512;5.494;2023-10-19T01:25:47;5.22;;;4.65;;
13807;SDS011;40769;51.512;5.494;2023-10-19T01:28:21;4.78;;;4.47;;
13807;SDS011;40769;51.512;5.494;2023-10-19T01:31:08;5.25;;;4.75;;
13807;SDS011;40769;51.512;5.494;2023-10-19T01:33:40;7.20;;;5.10;;
13807;SDS011;40769;51.512;5.494;2023-10-19T01:36:07;4.55;;;4.25;;
13807;SDS011;40769;51.512;5.494;2023-10-19T01:38:35;3.90;;;3.60;;
13807;SDS011;40769;51.512;5.494;2023-10-19T01:41:02;5.22;;;4.22;;
13807;SDS011;40769;51.512;5.494;2023-10-19T01:43:42;3.92;;;3.60;;
13807;SDS011;40769;51.512;5.494;2023-10-19T01:46:08;3.58;;;3.28;;
13807;SDS011;40769;51.512;5.494;2023-10-19T01:48:41;4.10;;;3.80;;
13807;SDS011;40769;51.512;5.494;2023-10-19T01:51:11;3.75;;;3.47;;
13807;SDS011;40769;51.512;5.494;2023-10-19T01:53:40;3.90;;;3.60;;
13807;SDS011;40769;51.512;5.494;2023-10-19T01:56:12;3.35;;;3.15;;
13807;SDS011;40769;51.512;5.494;2023-10-19T01:58:39;3.10;;;2.80;;
13807;SDS011;40769;51.512;5.494;2023-10-19T02:01:06;3.03;;;2.83;;
13807;SDS011;40769;51.512;5.494;2023-10-19T02:03:41;3.28;;;2.97;;
13807;SDS011;40769;51.512;5.494;2023-10-19T02:06:08;3.10;;;2.85;;
13807;SDS011;40769;51.512;5.494;2023-10-19T02:08:40;3.35;;;3.05;;
13807;SDS011;40769;51.512;5.494;2023-10-19T02:11:05;2.58;;;2.38;;
13807;SDS011;40769;51.512;5.494;2023-10-19T02:13:41;2.63;;;2.42;;
13807;SDS011;40769;51.512;5.494;2023-10-19T02:16:08;2.85;;;2.65;;
13807;SDS011;40769;51.512;5.494;2023-10-19T02:18:34;3.15;;;2.10;;
13807;SDS011;40769;51.512;5.494;2023-10-19T02:21:00;2.22;;;1.85;;
13807;SDS011;40769;51.512;5.494;2023-10-19T02:23:30;1.73;;;1.30;;
13807;SDS011;40769;51.512;5.494;2023-10-19T02:25:59;1.42;;;1.33;;
13807;SDS011;40769;51.512;5.494;2023-10-19T02:28:24;1.35;;;1.25;;
13807;SDS011;40769;51.512;5.494;2023-10-19T02:30:56;1.30;;;1.20;;
13807;SDS011;40769;51.512;5.494;2023-10-19T02:33:22;1.20;;;1.10;;
13807;SDS011;40769;51.512;5.494;2023-10-19T02:36:03;1.30;;;0.98;;
13807;SDS011;40769;51.512;5.494;2023-10-19T02:38:29;2.30;;;1.13;;
13807;SDS011;40769;51.512;5.494;2023-10-19T02:40:55;1.27;;;0.93;;
13807;SDS011;40769;51.512;5.494;2023-10-19T02:43:20;1.10;;;1.00;;
13807;SDS011;40769;51.512;5.494;2023-10-19T02:45:49;1.27;;;1.10;;
13807;SDS011;40769;51.512;5.494;2023-10-19T02:48:14;1.10;;;1.00;;
13807;SDS011;40769;51.512;5.494;2023-10-19T02:50:41;3.20;;;1.30;;
13807;SDS011;40769;51.512;5.494;2023-10-19T02:53:07;1.30;;;0.82;;
13807;SDS011;40769;51.512;5.494;2023-10-19T02:55:35;1.17;;;1.08;;
13807;SDS011;40769;51.512;5.494;2023-10-19T02:58:00;0.93;;;0.88;;
13807;SDS011;40769;51.512;5.494;2023-10-19T03:00:26;1.20;;;0.90;;
13807;SDS011;40769;51.512;5.494;2023-10-19T03:02:58;1.05;;;0.90;;
13807;SDS011;40769;51.512;5.494;2023-10-19T03:05:25;1.27;;;1.13;;
13807;SDS011;40769;51.512;5.494;2023-10-19T03:07:51;1.73;;;1.00;;
13807;SDS011;40769;51.512;5.494;2023-10-19T03:10:17;1.30;;;1.10;;
13807;SDS011;40769;51.512;5.494;2023-10-19T03:12:50;0.75;;;0.75;;
13807;SDS011;40769;51.512;5.494;2023-10-19T03:15:17;1.50;;;0.98;;
13807;SDS011;40769;51.512;5.494;2023-10-19T03:17:46;1.33;;;1.00;;
13807;SDS011;40769;51.512;5.494;2023-10-19T03:20:11;1.10;;;1.00;;
13807;SDS011;40769;51.512;5.494;2023-10-19T03:22:37;1.05;;;0.95;;
13807;SDS011;40769;51.512;5.494;2023-10-19T03:25:06;1.23;;;1.10;;
13807;SDS011;40769;51.512;5.494;2023-10-19T03:27:51;1.33;;;1.10;;
13807;SDS011;40769;51.512;5.494;2023-10-19T03:30:17;1.13;;;0.88;;
13807;SDS011;40769;51.512;5.494;2023-10-19T03:32:44;0.90;;;0.90;;
13807;SDS011;40769;51.512;5.494;2023-10-19T03:35:09;1.40;;;0.88;;
13807;SDS011;40769;51.512;5.494;2023-10-19T03:37:40;1.23;;;1.10;;
13807;SDS011;40769;51.512;5.494;2023-10-19T03:40:07;0.70;;;0.70;;
13807;SDS011;40769;51.512;5.494;2023-10-19T03:42:35;1.50;;;1.00;;
13807;SDS011;40769;51.512;5.494;2023-10-19T03:45:06;1.38;;;1.08;;
13807;SDS011;40769;51.512;5.494;2023-10-19T03:47:41;0.80;;;0.80;;
13807;SDS011;40769;51.512;5.494;2023-10-19T03:50:09;1.10;;;0.98;;
13807;SDS011;40769;51.512;5.494;2023-10-19T03:52:40;0.93;;;0.93;;
13807;SDS011;40769;51.512;5.494;2023-10-19T03:55:06;0.98;;;0.80;;
13807;SDS011;40769;51.512;5.494;2023-10-19T03:57:48;1.00;;;0.88;;
13807;SDS011;40769;51.512;5.494;2023-10-19T04:00:19;1.10;;;1.00;;
13807;SDS011;40769;51.512;5.494;2023-10-19T04:02:49;1.52;;;0.90;;
13807;SDS011;40769;51.512;5.494;2023-10-19T04:05:20;1.10;;;1.00;;
13807;SDS011;40769;51.512;5.494;2023-10-19T04:07:47;0.73;;;0.73;;
13807;SDS011;40769;51.512;5.494;2023-10-19T04:10:23;0.80;;;0.80;;
13807;SDS011;40769;51.512;5.494;2023-10-19T04:12:54;0.98;;;0.90;;
13807;SDS011;40769;51.512;5.494;2023-10-19T04:15:20;1.23;;;0.93;;
13807;SDS011;40769;51.512;5.494;2023-10-19T04:17:47;0.80;;;0.80;;
13807;SDS011;40769;51.512;5.494;2023-10-19T04:20:15;1.33;;;1.17;;
13807;SDS011;40769;51.512;5.494;2023-10-19T04:22:42;0.98;;;0.90;;
13807;SDS011;40769;51.512;5.494;2023-10-19T04:25:08;1.00;;;0.82;;
13807;SDS011;40769;51.512;5.494;2023-10-19T04:27:37;1.25;;;0.82;;
13807;SDS011;40769;51.512;5.494;2023-10-19T04:30:03;1.13;;;0.93;;
13807;SDS011;40769;51.512;5.494;2023-10-19T04:32:30;0.88;;;0.88;;
13807;SDS011;40769;51.512;5.494;2023-10-19T04:34:57;1.50;;;1.00;;
13807;SDS011;40769;51.512;5.494;2023-10-19T04:37:23;1.75;;;1.20;;
13807;SDS011;40769;51.512;5.494;2023-10-19T04:39:49;1.25;;;1.00;;
13807;SDS011;40769;51.512;5.494;2023-10-19T04:42:15;0.98;;;0.90;;
13807;SDS011;40769;51.512;5.494;2023-10-19T04:44:41;1.08;;;0.98;;
13807;SDS011;40769;51.512;5.494;2023-10-19T04:47:06;1.50;;;1.10;;
13807;SDS011;40769;51.512;5.494;2023-10-19T04:49:32;1.10;;;1.00;;
13807;SDS011;40769;51.512;5.494;2023-10-19T04:51:57;1.00;;;0.90;;
13807;SDS011;40769;51.512;5.494;2023-10-19T04:54:23;0.80;;;0.80;;
13807;SDS011;40769;51.512;5.494;2023-10-19T04:56:49;1.15;;;0.93;;
13807;SDS011;40769;51.512;5.494;2023-10-19T04:59:17;1.38;;;0.65;;
13807;SDS011;40769;51.512;5.494;2023-10-19T05:01:43;0.68;;;0.68;;
13807;SDS011;40769;51.512;5.494;2023-10-19T05:04:08;0.93;;;0.80;;
13807;SDS011;40769;51.512;5.494;2023-10-19T05:06:34;0.80;;;0.70;;
13807;SDS011;40769;51.512;5.494;2023-10-19T05:09:00;0.82;;;0.70;;
13807;SDS011;40769;51.512;5.494;2023-10-19T05:11:28;1.55;;;0.90;;
13807;SDS011;40769;51.512;5.494;2023-10-19T05:13:53;0.98;;;0.70;;
13807;SDS011;40769;51.512;5.494;2023-10-19T05:16:20;1.13;;;0.80;;
13807;SDS011;40769;51.512;5.494;2023-10-19T05:18:46;1.73;;;0.82;;
13807;SDS011;40769;51.512;5.494;2023-10-19T05:21:11;0.90;;;0.80;;
13807;SDS011;40769;51.512;5.494;2023-10-19T05:23:37;1.00;;;0.90;;
13807;SDS011;40769;51.512;5.494;2023-10-19T05:26:04;1.73;;;0.80;;
13807;SDS011;40769;51.512;5.494;2023-10-19T05:28:31;1.40;;;0.93;;
13807;SDS011;40769;51.512;5.494;2023-10-19T05:30:57;0.88;;;0.80;;
13807;SDS011;40769;51.512;5.494;2023-10-19T05:33:24;1.10;;;0.75;;
13807;SDS011;40769;51.512;5.494;2023-10-19T05:35:50;0.80;;;0.70;;
13807;SDS011;40769;51.512;5.494;2023-10-19T05:38:32;1.42;;;0.60;;
13807;SDS011;40769;51.512;5.494;2023-10-19T05:40:58;2.15;;;0.90;;
13807;SDS011;40769;51.512;5.494;2023-10-19T05:43:26;1.20;;;1.00;;
13807;SDS011;40769;51.512;5.494;2023-10-19T05:45:53;2.80;;;0.80;;
13807;SDS011;40769;51.512;5.494;2023-10-19T05:48:19;1.58;;;1.00;;
13807;SDS011;40769;51.512;5.494;2023-10-19T05:50:45;1.40;;;1.00;;
13807;SDS011;40769;51.512;5.494;2023-10-19T05:53:11;1.95;;;0.82;;
13807;SDS011;40769;51.512;5.494;2023-10-19T05:55:37;1.60;;;0.80;;
13807;SDS011;40769;51.512;5.494;2023-10-19T05:58:04;1.33;;;0.85;;
13807;SDS011;40769;51.512;5.494;2023-10-19T06:00:30;2.13;;;1.02;;
13807;SDS011;40769;51.512;5.494;2023-10-19T06:02:56;1.02;;;0.90;;
13807;SDS011;40769;51.512;5.494;2023-10-19T06:05:25;1.88;;;1.10;;
13807;SDS011;40769;51.512;5.494;2023-10-19T06:07:50;1.90;;;1.10;;
13807;SDS011;40769;51.512;5.494;2023-10-19T06:10:17;2.60;;;0.80;;
13807;SDS011;40769;51.512;5.494;2023-10-19T06:12:46;2.28;;;1.10;;
13807;SDS011;40769;51.512;5.494;2023-10-19T06:15:17;1.88;;;1.00;;
13807;SDS011;40769;51.512;5.494;2023-10-19T06:17:43;1.52;;;0.80;;
13807;SDS011;40769;51.512;5.494;2023-10-19T06:20:12;1.33;;;0.85;;
13807;SDS011;40769;51.512;5.494;2023-10-19T06:22:58;1.02;;;0.77;;
13807;SDS011;40769;51.512;5.494;2023-10-19T06:25:30;1.15;;;0.82;;
13807;SDS011;40769;51.512;5.494;2023-10-19T06:27:59;3.50;;;1.50;;
13807;SDS011;40769;51.512;5.494;2023-10-19T06:30:26;1.88;;;1.10;;
13807;SDS011;40769;51.512;5.494;2023-10-19T06:32:56;1.60;;;1.10;;
13807;SDS011;40769;51.512;5.494;2023-10-19T06:35:26;1.75;;;0.90;;
13807;SDS011;40769;51.512;5.494;2023-10-19T06:37:53;1.70;;;0.95;;
13807;SDS011;40769;51.512;5.494;2023-10-19T06:40:20;1.38;;;0.80;;
13807;SDS011;40769;51.512;5.494;2023-10-19T06:42:47;0.70;;;0.65;;
13807;SDS011;40769;51.512;5.494;2023-10-19T06:45:14;1.13;;;0.90;;
13807;SDS011;40769;51.512;5.494;2023-10-19T06:47:41;1.60;;;0.80;;
13807;SDS011;40769;51.512;5.494;2023-10-19T06:50:09;1.50;;;1.00;;
13807;SDS011;40769;51.512;5.494;2023-10-19T06:52:36;1.23;;;0.80;;
13807;SDS011;40769;51.512;5.494;2023-10-19T06:55:04;1.10;;;0.70;;
13807;SDS011;40769;51.512;5.494;2023-10-19T06:57:30;1.42;;;1.00;;
13807;SDS011;40769;51.512;5.494;2023-10-19T06:59:58;1.23;;;1.08;;
13807;SDS011;40769;51.512;5.494;2023-10-19T07:02:24;1.08;;;0.90;;
13807;SDS011;40769;51.512;5.494;2023-10-19T07:04:51;1.00;;;0.65;;
13807;SDS011;40769;51.512;5.494;2023-10-19T07:07:17;1.15;;;0.70;;
13807;SDS011;40769;51.512;5.494;2023-10-19T07:09:43;2.10;;;1.35;;
13807;SDS011;40769;51.512;5.494;2023-10-19T07:12:08;1.35;;;0.90;;
13807;SDS011;40769;51.512;5.494;2023-10-19T07:14:35;1.20;;;0.90;;
13807;SDS011;40769;51.512;5.494;2023-10-19T07:17:01;1.63;;;0.85;;
13807;SDS011;40769;51.512;5.494;2023-10-19T07:19:26;1.70;;;1.10;;
13807;SDS011;40769;51.512;5.494;2023-10-19T07:21:52;1.52;;;1.00;;
13807;SDS011;40769;51.512;5.494;2023-10-19T07:24:24;1.83;;;1.20;;
13807;SDS011;40769;51.512;5.494;2023-10-19T07:26:50;1.60;;;0.98;;
13807;SDS011;40769;51.512;5.494;2023-10-19T07:29:28;1.17;;;0.93;;
13807;SDS011;40769;51.512;5.494;2023-10-19T07:31:55;2.10;;;1.17;;
13807;SDS011;40769;51.512;5.494;2023-10-19T07:34:23;1.50;;;1.30;;
13807;SDS011;40769;51.512;5.494;2023-10-19T07:36:53;1.58;;;1.00;;
13807;SDS011;40769;51.512;5.494;2023-10-19T07:39:19;3.45;;;1.40;;
13807;SDS011;40769;51.512;5.494;2023-10-19T07:41:47;2.30;;;1.25;;
13807;SDS011;40769;51.512;5.494;2023-10-19T07:44:13;2.00;;;1.27;;
13807;SDS011;40769;51.512;5.494;2023-10-19T07:46:39;2.85;;;1.00;;
13807;SDS011;40769;51.512;5.494;2023-10-19T07:49:04;1.98;;;1.30;;
13807;SDS011;40769;51.512;5.494;2023-10-19T07:51:30;3.42;;;1.50;;
13807;SDS011;40769;51.512;5.494;2023-10-19T07:53:57;1.85;;;1.05;;
13807;SDS011;40769;51.512;5.494;2023-10-19T07:56:22;1.80;;;1.02;;
13807;SDS011;40769;51.512;5.494;2023-10-19T07:58:48;2.55;;;1.15;;
13807;SDS011;40769;51.512;5.494;2023-10-19T08:01:14;1.98;;;1.40;;
13807;SDS011;40769;51.512;5.494;2023-10-19T08:03:40;3.22;;;1.42;;
13807;SDS011;40769;51.512;5.494;2023-10-19T08:06:06;1.65;;;1.15;;
13807;SDS011;40769;51.512;5.494;2023-10-19T08:08:31;2.30;;;1.00;;
13807;SDS011;40769;51.512;5.494;2023-10-19T08:11:00;1.88;;;1.08;;
13807;SDS011;40769;51.512;5.494;2023-10-19T08:13:27;1.65;;;1.00;;
13807;SDS011;40769;51.512;5.494;2023-10-19T08:15:53;3.53;;;1.70;;
13807;SDS011;40769;51.512;5.494;2023-10-19T08:18:18;2.30;;;1.00;;
13807;SDS011;40769;51.512;5.494;2023-10-19T08:20:45;2.13;;;1.10;;
13807;SDS011;40769;51.512;5.494;2023-10-19T08:23:11;2.47;;;1.38;;
13807;SDS011;40769;51.512;5.494;2023-10-19T08:25:41;2.03;;;1.10;;
13807;SDS011;40769;51.512;5.494;2023-10-19T08:28:09;1.92;;;1.00;;
13807;SDS011;40769;51.512;5.494;2023-10-19T08:30:36;1.17;;;1.08;;
13807;SDS011;40769;51.512;5.494;2023-10-19T08:33:02;2.30;;;1.20;;
13807;SDS011;40769;51.512;5.494;2023-10-19T08:35:29;2.72;;;1.17;;
13807;SDS011;40769;51.512;5.494;2023-10-19T08:37:56;2.20;;;1.00;;
13807;SDS011;40769;51.512;5.494;2023-10-19T08:40:22;1.10;;;0.90;;
13807;SDS011;40769;51.512;5.494;2023-10-19T08:42:51;1.65;;;0.93;;
13807;SDS011;40769;51.512;5.494;2023-10-19T08:45:18;2.17;;;0.90;;
13807;SDS011;40769;51.512;5.494;2023-10-19T08:47:53;1.98;;;1.10;;
13807;SDS011;40769;51.512;5.494;2023-10-19T08:50:21;1.88;;;1.08;;
13807;SDS011;40769;51.512;5.494;2023-10-19T08:52:49;2.55;;;1.25;;
13807;SDS011;40769;51.512;5.494;2023-10-19T08:55:19;4.28;;;1.45;;
13807;SDS011;40769;51.512;5.494;2023-10-19T08:57:45;2.25;;;1.10;;
13807;SDS011;40769;51.512;5.494;2023-10-19T09:00:14;2.05;;;0.98;;
13807;SDS011;40769;51.512;5.494;2023-10-19T09:02:43;3.05;;;1.50;;
13807;SDS011;40769;51.512;5.494;2023-10-19T09:05:09;1.92;;;1.10;;
13807;SDS011;40769;51.512;5.494;2023-10-19T09:07:45;1.73;;;1.02;;
13807;SDS011;40769;51.512;5.494;2023-10-19T09:10:14;2.90;;;1.10;;
13807;SDS011;40769;51.512;5.494;2023-10-19T09:12:42;2.55;;;1.50;;
13807;SDS011;40769;51.512;5.494;2023-10-19T09:15:31;3.47;;;1.73;;
13807;SDS011;40769;51.512;5.494;2023-10-19T09:18:12;2.78;;;1.20;;
13807;SDS011;40769;51.512;5.494;2023-10-19T09:20:42;3.67;;;1.27;;
13807;SDS011;40769;51.512;5.494;2023-10-19T09:23:17;2.05;;;1.00;;
13807;SDS011;40769;51.512;5.494;2023-10-19T09:25:45;2.70;;;1.17;;
13807;SDS011;40769;51.512;5.494;2023-10-19T09:28:12;2.83;;;1.08;;
13807;SDS011;40769;51.512;5.494;2023-10-19T09:30:39;2.35;;;1.02;;
13807;SDS011;40769;51.512;5.494;2023-10-19T09:33:08;2.85;;;1.33;;
13807;SDS011;40769;51.512;5.494;2023-10-19T09:35:34;3.90;;;1.13;;
13807;SDS011;40769;51.512;5.494;2023-10-19T09:38:03;2.88;;;1.10;;
13807;SDS011;40769;51.512;5.494;2023-10-19T09:40:31;1.02;;;0.90;;
13807;SDS011;40769;51.512;5.494;2023-10-19T09:42:58;1.98;;;0.73;;
13807;SDS011;40769;51.512;5.494;2023-10-19T09:45:27;2.35;;;1.02;;
13807;SDS011;40769;51.512;5.494;2023-10-19T09:47:55;4.18;;;1.40;;
13807;SDS011;40769;51.512;5.494;2023-10-19T09:50:21;3.75;;;1.38;;
13807;SDS011;40769;51.512;5.494;2023-10-19T09:52:47;2.85;;;1.00;;
13807;SDS011;40769;51.512;5.494;2023-10-19T09:55:17;2.22;;;1.20;;
13807;SDS011;40769;51.512;5.494;2023-10-19T09:58:06;1.60;;;0.88;;
13807;SDS011;40769;51.512;5.494;2023-10-19T10:00:47;1.75;;;0.85;;
13807;SDS011;40769;51.512;5.494;2023-10-19T10:06:07;2.22;;;1.30;;
13807;SDS011;40769;51.512;5.494;2023-10-19T10:08:35;3.20;;;1.08;;
13807;SDS011;40769;51.512;5.494;2023-10-19T10:11:15;4.18;;;1.20;;
13807;SDS011;40769;51.512;5.494;2023-10-19T10:13:43;1.75;;;1.10;;
13807;SDS011;40769;51.512;5.494;2023-10-19T10:16:14;2.13;;;1.30;;
13807;SDS011;40769;51.512;5.494;2023-10-19T10:18:40;2.30;;;1.17;;
13807;SDS011;40769;51.512;5.494;2023-10-19T10:23:39;1.20;;;0.75;;
13807;SDS011;40769;51.512;5.494;2023-10-19T10:26:10;3.35;;;1.45;;
13807;SDS011;40769;51.512;5.494;2023-10-19T10:28:37;2.60;;;1.40;;
13807;SDS011;40769;51.512;5.494;2023-10-19T10:31:07;3.90;;;1.50;;
13807;SDS011;40769;51.512;5.494;2023-10-19T10:33:39;2.92;;;2.33;;
13807;SDS011;40769;51.512;5.494;2023-10-19T10:36:05;7.20;;;5.30;;
13807;SDS011;40769;51.512;5.494;2023-10-19T10:38:35;4.38;;;2.50;;
13807;SDS011;40769;51.512;5.494;2023-10-19T10:41:01;2.72;;;1.85;;
13807;SDS011;40769;51.512;5.494;2023-10-19T10:43:29;3.53;;;1.58;;
13807;SDS011;40769;51.512;5.494;2023-10-19T10:46:07;2.10;;;1.50;;
13807;SDS011;40769;51.512;5.494;2023-10-19T10:48:33;2.35;;;1.23;;
13807;SDS011;40769;51.512;5.494;2023-10-19T10:51:14;1.83;;;1.42;;
13807;SDS011;40769;51.512;5.494;2023-10-19T10:53:47;2.40;;;1.15;;
13807;SDS011;40769;51.512;5.494;2023-10-19T10:56:14;4.18;;;1.52;;
13807;SDS011;40769;51.512;5.494;2023-10-19T10:58:40;3.42;;;1.50;;
13807;SDS011;40769;51.512;5.494;2023-10-19T11:01:06;2.53;;;1.40;;
13807;SDS011;40769;51.512;5.494;2023-10-19T11:03:32;1.90;;;1.42;;
13807;SDS011;40769;51.512;5.494;2023-10-19T11:06:04;2.25;;;1.33;;
13807;SDS011;40769;51.512;5.494;2023-10-19T11:08:33;3.20;;;1.58;;
13807;SDS011;40769;51.512;5.494;2023-10-19T11:11:03;2.80;;;1.50;;
13807;SDS011;40769;51.512;5.494;2023-10-19T11:13:35;3.67;;;1.60;;
13807;SDS011;40769;51.512;5.494;2023-10-19T11:16:04;2.20;;;1.20;;
13807;SDS011;40769;51.512;5.494;2023-10-19T11:18:37;3.33;;;1.73;;
13807;SDS011;40769;51.512;5.494;2023-10-19T11:21:13;1.88;;;1.30;;
13807;SDS011;40769;51.512;5.494;2023-10-19T11:23:44;2.13;;;0.98;;
13807;SDS011;40769;51.512;5.494;2023-10-19T11:26:12;1.80;;;1.20;;
13807;SDS011;40769;51.512;5.494;2023-10-19T11:28:39;3.25;;;1.30;;
13807;SDS011;40769;51.512;5.494;2023-10-19T11:31:17;3.25;;;1.50;;
13807;SDS011;40769;51.512;5.494;2023-10-19T11:33:47;3.85;;;1.45;;
13807;SDS011;40769;51.512;5.494;2023-10-19T11:36:14;2.85;;;1.25;;
13807;SDS011;40769;51.512;5.494;2023-10-19T11:38:41;3.50;;;1.60;;
13807;SDS011;40769;51.512;5.494;2023-10-19T11:41:11;2.03;;;1.00;;
13807;SDS011;40769;51.512;5.494;2023-10-19T11:43:39;1.60;;;1.10;;
13807;SDS011;40769;51.512;5.494;2023-10-19T11:46:05;1.58;;;0.95;;
13807;SDS011;40769;51.512;5.494;2023-10-19T11:48:32;1.92;;;1.05;;
13807;SDS011;40769;51.512;5.494;2023-10-19T11:50:59;2.17;;;1.08;;
13807;SDS011;40769;51.512;5.494;2023-10-19T11:53:29;2.15;;;1.40;;
13807;SDS011;40769;51.512;5.494;2023-10-19T11:56:06;2.30;;;1.45;;
13807;SDS011;40769;51.512;5.494;2023-10-19T11:58:36;2.03;;;1.27;;
13807;SDS011;40769;51.512;5.494;2023-10-19T12:01:05;2.95;;;1.55;;
13807;SDS011;40769;51.512;5.494;2023-10-19T12:03:33;3.17;;;1.67;;
13807;SDS011;40769;51.512;5.494;2023-10-19T12:06:03;3.05;;;1.40;;
13807;SDS011;40769;51.512;5.494;2023-10-19T12:08:31;3.42;;;1.25;;
13807;SDS011;40769;51.512;5.494;2023-10-19T12:11:03;1.67;;;1.10;;
13807;SDS011;40769;51.512;5.494;2023-10-19T12:13:40;3.15;;;1.60;;
13807;SDS011;40769;51.512;5.494;2023-10-19T12:16:08;3.50;;;1.48;;
13807;SDS011;40769;51.512;5.494;2023-10-19T12:18:37;2.53;;;1.45;;
13807;SDS011;40769;51.512;5.494;2023-10-19T12:21:03;2.55;;;1.02;;
13807;SDS011;40769;51.512;5.494;2023-10-19T12:23:32;1.85;;;1.08;;
13807;SDS011;40769;51.512;5.494;2023-10-19T12:25:58;2.15;;;1.30;;
13807;SDS011;40769;51.512;5.494;2023-10-19T12:28:28;1.48;;;1.13;;
13807;SDS011;40769;51.512;5.494;2023-10-19T12:30:54;3.13;;;1.40;;
13807;SDS011;40769;51.512;5.494;2023-10-19T12:33:21;2.92;;;0.98;;
13807;SDS011;40769;51.512;5.494;2023-10-19T12:35:47;2.80;;;1.10;;
13807;SDS011;40769;51.512;5.494;2023-10-19T12:38:24;1.95;;;1.23;;
13807;SDS011;40769;51.512;5.494;2023-10-19T12:40:50;2.70;;;1.23;;
13807;SDS011;40769;51.512;5.494;2023-10-19T12:43:17;2.25;;;1.05;;
13807;SDS011;40769;51.512;5.494;2023-10-19T12:45:50;3.17;;;1.00;;
13807;SDS011;40769;51.512;5.494;2023-10-19T12:48:18;2.92;;;1.38;;
13807;SDS011;40769;51.512;5.494;2023-10-19T12:50:45;2.22;;;1.20;;
13807;SDS011;40769;51.512;5.494;2023-10-19T12:53:11;2.58;;;1.30;;
13807;SDS011;40769;51.512;5.494;2023-10-19T12:55:37;2.25;;;1.20;;
13807;SDS011;40769;51.512;5.494;2023-10-19T12:58:03;2.33;;;1.10;;
13807;SDS011;40769;51.512;5.494;2023-10-19T13:00:34;1.52;;;1.23;;
13807;SDS011;40769;51.512;5.494;2023-10-19T13:03:08;2.53;;;1.25;;
13807;SDS011;40769;51.512;5.494;2023-10-19T13:05:38;1.58;;;1.00;;
13807;SDS011;40769;51.512;5.494;2023-10-19T13:08:05;1.20;;;1.10;;
13807;SDS011;40769;51.512;5.494;2023-10-19T13:10:33;1.92;;;1.20;;
13807;SDS011;40769;51.512;5.494;2023-10-19T13:13:02;2.03;;;1.35;;
13807;SDS011;40769;51.512;5.494;2023-10-19T13:15:30;2.78;;;1.55;;
13807;SDS011;40769;51.512;5.494;2023-10-19T13:17:57;2.85;;;1.40;;
13807;SDS011;40769;51.512;5.494;2023-10-19T13:20:29;2.90;;;1.70;;
13807;SDS011;40769;51.512;5.494;2023-10-19T13:23:01;2.67;;;1.17;;
13807;SDS011;40769;51.512;5.494;2023-10-19T13:25:38;2.97;;;1.13;;
13807;SDS011;40769;51.512;5.494;2023-10-19T13:28:24;3.55;;;1.58;;
13807;SDS011;40769;51.512;5.494;2023-10-19T13:30:52;1.70;;;1.27;;
13807;SDS011;40769;51.512;5.494;2023-10-19T13:33:19;3.03;;;1.58;;
13807;SDS011;40769;51.512;5.494;2023-10-19T13:35:51;2.35;;;1.40;;
13807;SDS011;40769;51.512;5.494;2023-10-19T13:38:19;2.00;;;1.27;;
13807;SDS011;40769;51.512;5.494;2023-10-19T13:40:45;4.15;;;2.05;;
13807;SDS011;40769;51.512;5.494;2023-10-19T13:43:11;1.80;;;1.20;;
13807;SDS011;40769;51.512;5.494;2023-10-19T13:45:43;2.30;;;1.27;;
13807;SDS011;40769;51.512;5.494;2023-10-19T13:48:09;2.15;;;1.10;;
13807;SDS011;40769;51.512;5.494;2023-10-19T13:50:40;3.15;;;1.20;;
13807;SDS011;40769;51.512;5.494;2023-10-19T13:53:07;2.60;;;1.42;;
13807;SDS011;40769;51.512;5.494;2023-10-19T13:55:34;1.92;;;1.20;;
13807;SDS011;40769;51.512;5.494;2023-10-19T13:58:01;2.22;;;0.90;;
13807;SDS011;40769;51.512;5.494;2023-10-19T14:00:27;3.13;;;1.50;;
13807;SDS011;40769;51.512;5.494;2023-10-19T14:03:00;3.53;;;1.70;;
13807;SDS011;40769;51.512;5.494;2023-10-19T14:05:29;3.08;;;1.83;;
13807;SDS011;40769;51.512;5.494;2023-10-19T14:08:01;2.17;;;1.42;;
13807;SDS011;40769;51.512;5.494;2023-10-19T14:10:31;3.40;;;1.50;;
13807;SDS011;40769;51.512;5.494;2023-10-19T14:12:59;2.58;;;1.60;;
13807;SDS011;40769;51.512;5.494;2023-10-19T14:15:25;3.72;;;1.70;;
13807;SDS011;40769;51.512;5.494;2023-10-19T14:17:52;2.45;;;1.40;;
13807;SDS011;40769;51.512;5.494;2023-10-19T14:20:20;1.58;;;1.20;;
13807;SDS011;40769;51.512;5.494;2023-10-19T14:22:46;2.25;;;1.38;;
13807;SDS011;40769;51.512;5.494;2023-10-19T14:25:14;2.83;;;1.67;;
13807;SDS011;40769;51.512;5.494;2023-10-19T14:27:44;4.10;;;1.60;;
13807;SDS011;40769;51.512;5.494;2023-10-19T14:30:16;2.40;;;1.42;;
13807;SDS011;40769;51.512;5.494;2023-10-19T14:32:43;3.13;;;1.90;;
13807;SDS011;40769;51.512;5.494;2023-10-19T14:35:15;3.83;;;1.67;;
13807;SDS011;40769;51.512;5.494;2023-10-19T14:37:50;2.85;;;1.77;;
13807;SDS011;40769;51.512;5.494;2023-10-19T14:40:20;2.38;;;1.42;;
13807;SDS011;40769;51.512;5.494;2023-10-19T14:42:50;1.65;;;1.23;;
13807;SDS011;40769;51.512;5.494;2023-10-19T14:45:20;3.47;;;1.75;;
13807;SDS011;40769;51.512;5.494;2023-10-19T14:47:50;3.78;;;1.73;;
13807;SDS011;40769;51.512;5.494;2023-10-19T14:50:17;3.13;;;1.80;;
13807;SDS011;40769;51.512;5.494;2023-10-19T14:52:44;3.65;;;2.40;;
13807;SDS011;40769;51.512;5.494;2023-10-19T14:55:11;3.10;;;1.83;;
13807;SDS011;40769;51.512;5.494;2023-10-19T14:57:43;4.68;;;1.88;;
13807;SDS011;40769;51.512;5.494;2023-10-19T15:00:16;4.97;;;1.50;;
13807;SDS011;40769;51.512;5.494;2023-10-19T15:02:58;3.35;;;1.65;;
13807;SDS011;40769;51.512;5.494;2023-10-19T15:05:26;3.83;;;1.70;;
13807;SDS011;40769;51.512;5.494;2023-10-19T15:07:53;2.33;;;1.40;;